Meteo Giornale » Osservazioni meteo Grecia » Souda
ore: 20:50 - Osservazioni Meteo Souda
Lat. 35° 29' N Lon. 24° 7' E Alt. 146 metri s.l.m.
25 °C
Sereno
Temp. 24 Ore
22 °C
30 °C
Nord
0 Km/h
Dew point 20 °C
Umidità 73 %
Visibilità 10 Km
Il sole sorge alle ore 06:55
Il sole tramonta alle ore 19:51
| Data e Ora | Cielo e Fenomeni | T °C | DP °C | Um. % | Pres. hPa | Vis. km | Vento km/h | |
|---|---|---|---|---|---|---|---|---|
| Oggi h: 20:50 | Sereno | 25 | 20 | 73 | 1014 | 10 | N 0 | |
| Oggi h: 20:20 | Sereno | 26 | 20 | 69 | 1013 | 10 | N 0 | |
| Oggi h: 19:50 | Sereno | 26 | 20 | 69 | 1013 | 10 | O 7.4 | |
| Oggi h: 19:20 | Sereno | 29 | 18 | 51 | 1013 | 10 | O 7.4 | |
| Oggi h: 18:50 | Sereno | 29 | 18 | 51 | 1013 | 10 | O 9.3 | |
| Oggi h: 18:20 | Sereno | 30 | 18 | 48 | 1013 | 10 | NO 7.4 | |
| Oggi h: 17:50 | Sereno | 30 | 18 | 48 | 1013 | 10 | N 11.1 | |
| Oggi h: 17:20 | Sereno | 30 | 18 | 48 | 1013 | 10 | NO 7.4 | |
| Oggi h: 16:50 | Sereno | 30 | 18 | 48 | 1013 | 10 | N/NO 7.4 | |
| Oggi h: 16:20 | Sereno | 30 | 15 | 40 | 1014 | 10 | O 14.8 | |
| Oggi h: 15:50 | Sereno | 30 | 15 | 40 | 1014 | 10 | NO 14.8 | |
| Oggi h: 15:20 | Sereno | 30 | 15 | 40 | 1014 | 10 | N/NO 14.8 | |
| Oggi h: 14:50 | Sereno | 30 | 15 | 40 | 1014 | 10 | N/NO 11.1 | |
| Oggi h: 14:20 | Sereno | 30 | 17 | 45 | 1014 | 10 | N/NO 14.8 | |
| Oggi h: 13:50 | Sereno | 30 | 17 | 45 | 1014 | 10 | NO 14.8 | |
| Oggi h: 13:20 | Sereno | 30 | 17 | 45 | 1014 | 10 | N 11.1 | |
| Oggi h: 12:50 | Sereno | 30 | 17 | 45 | 1014 | 10 | O/NO 14.8 | |
| Oggi h: 12:20 | Sereno | 30 | 14 | 37 | 1014 | 10 | NO 11.1 | |
| Oggi h: 11:50 | Sereno | 30 | 14 | 37 | 1014 | 10 | N/NO 14.8 | |
| Oggi h: 11:20 | Sereno | 29 | 15 | 42 | 1014 | 10 | N/NO 14.8 | |
| Oggi h: 10:50 | Sereno | 29 | 15 | 42 | 1014 | 10 | O/NO 14.8 | |
| Oggi h: 10:20 | Sereno | 28 | 19 | 58 | 1014 | 10 | N/NO 11.1 | |
| Oggi h: 09:50 | Sereno | 27 | 19 | 61 | 1014 | 10 | O/SO 7.4 | |
| Oggi h: 09:20 | Sereno | 26 | 18 | 61 | 1014 | 10 | O 7.4 | |
| Oggi h: 08:50 | Sereno | 25 | 18 | 65 | 1014 | 10 | N 0 | |
| Oggi h: 08:20 | Sereno | 25 | 20 | 73 | 1014 | 10 | N 0 | |
| Oggi h: 07:50 | Sereno | 22 | 18 | 78 | 1014 | 10 | N 0 | |
| Oggi h: 07:20 | Sereno | 22 | 17 | 73 | 1013 | 10 | N 0 | |
| Oggi h: 06:50 | Sereno | 22 | 16 | 68 | 1013 | 10 | N 0 | |
| Oggi h: 06:20 | Poco Nuvoloso | 23 | 16 | 64 | 1013 | 10 | N 0 | |
| Oggi h: 05:50 | Poco Nuvoloso | 22 | 15 | 64 | 1013 | 10 | N 0 | |
| Oggi h: 05:20 | Poco Nuvoloso | 23 | 15 | 60 | 1013 | 10 | N 0 | |
| Oggi h: 04:20 | Poco Nuvoloso | 24 | 16 | 60 | 1013 | 10 | N 0 | |
| Oggi h: 03:50 | Poco Nuvoloso | 24 | 16 | 60 | 1013 | 10 | N 0 | |
| Oggi h: 03:20 | Poco Nuvoloso | 24 | 16 | 60 | 1014 | 10 | N 0 | |
| Oggi h: 02:50 | Poco Nuvoloso | 24 | 16 | 60 | 1013 | 10 | N 0 | |
| Oggi h: 02:20 | Poco Nuvoloso | 24 | 18 | 69 | 1014 | 10 | N 0 | |
| Oggi h: 01:50 | Poco Nuvoloso | 24 | 18 | 69 | 1014 | 10 | N 0 | |
| Oggi h: 01:20 | Poco Nuvoloso | 24 | 19 | 73 | 1014 | 10 | N 0 | |
| Oggi h: 00:50 | Poco Nuvoloso | 24 | 19 | 73 | 1014 | 10 | N 0 | |
| Oggi h: 00:20 | Poco Nuvoloso | 24 | 18 | 69 | 1014 | 10 | N 0 | |
| Ieri h: 23:50 | Poco Nuvoloso | 24 | 18 | 69 | 1014 | 10 | N 0 | |
| Ieri h: 23:20 | Poco Nuvoloso | 25 | 16 | 57 | 1014 | 10 | N 0 | |
| Ieri h: 22:50 | Poco Nuvoloso | 25 | 16 | 57 | 1014 | 10 | N 0 | |
| Ieri h: 22:20 | Poco Nuvoloso | 25 | 18 | 65 | 1014 | 10 | N 0 | |
| Ieri h: 21:50 | Poco Nuvoloso | 25 | 18 | 65 | 1014 | 10 | N 0 | |



